Time;durP1;ratioP1;P1;durP2;ratioP2;P2;SDS_P1;SDS_P2;PMS_P1;PMS_P2;Temp;Humidity;BMP_temperature;BMP_pressure;BME280_temperature;BME280_humidity;BME280_pressure;Samples;Min_cycle;Max_cycle;Signal;HPM_P1;HPM_P2
2021/08/17 00:00:26;;;;;;;15.60;10.07;;;15.60;83.10;;;;;;6152760;28;20432;-76
2021/08/17 00:03:30;;;;;;;16.30;10.40;;;15.60;83.00;;;;;;6152939;28;20508;-76
2021/08/17 00:06:32;;;;;;;16.25;9.73;;;15.70;83.00;;;;;;6153027;29;20757;-76
2021/08/17 00:09:34;;;;;;;20.13;10.45;;;15.60;83.00;;;;;;6152313;28;20424;-76
2021/08/17 00:12:35;;;;;;;15.00;9.45;;;15.60;84.00;;;;;;6152588;28;20915;-76
2021/08/17 00:15:37;;;;;;;14.97;9.50;;;15.50;84.00;;;;;;6152191;28;20935;-75
2021/08/17 00:18:41;;;;;;;15.68;8.93;;;15.50;83.80;;;;;;6152453;29;21050;-76
2021/08/17 00:21:42;;;;;;;16.08;8.90;;;15.40;83.90;;;;;;6152291;28;20515;-76
2021/08/17 00:24:44;;;;;;;13.07;8.00;;;15.40;83.60;;;;;;6152447;28;20508;-75
2021/08/17 00:27:46;;;;;;;16.40;9.32;;;15.30;83.40;;;;;;6152359;28;20421;-76
2021/08/17 00:30:48;;;;;;;16.02;9.73;;;15.20;83.30;;;;;;6150205;28;20477;-76
2021/08/17 00:33:51;;;;;;;16.25;9.70;;;15.10;83.50;;;;;;6128957;29;20906;-75
2021/08/17 00:36:53;;;;;;;16.63;9.82;;;15.10;84.10;;;;;;6128602;29;20482;-76
2021/08/17 00:39:55;;;;;;;13.57;9.18;;;15.10;83.30;;;;;;6130179;29;20491;-76
2021/08/17 00:42:57;;;;;;;14.35;8.30;;;15.10;83.20;;;;;;6130409;29;20523;-75
2021/08/17 00:45:59;;;;;;;12.80;8.00;;;15.10;82.50;;;;;;6130692;29;20505;-76
2021/08/17 00:49:02;;;;;;;11.93;8.32;;;15.00;83.10;;;;;;6130832;29;20510;-75
2021/08/17 00:52:05;;;;;;;13.77;9.13;;;14.80;83.20;;;;;;6130444;29;20876;-76
2021/08/17 00:55:08;;;;;;;15.07;9.27;;;14.70;83.00;;;;;;6130170;29;20427;-74
2021/08/17 00:58:10;;;;;;;18.05;10.45;;;14.60;83.60;;;;;;6128544;29;20501;-75
2021/08/17 01:01:12;;;;;;;17.25;10.07;;;14.50;84.60;;;;;;6127222;29;20516;-75
2021/08/17 01:04:15;;;;;;;18.00;9.48;;;14.40;84.60;;;;;;6127653;29;20427;-76
2021/08/17 01:07:17;;;;;;;14.20;8.88;;;14.40;84.60;;;;;;6127735;29;20479;-75
2021/08/17 01:10:19;;;;;;;16.17;9.13;;;14.30;85.00;;;;;;6127811;29;20470;-76
2021/08/17 01:13:23;;;;;;;14.50;7.78;;;14.30;85.10;;;;;;6127360;29;20423;-76
2021/08/17 01:16:25;;;;;;;17.58;8.32;;;14.30;85.00;;;;;;6127031;29;20498;-76
2021/08/17 01:19:28;;;;;;;11.25;7.80;;;14.30;84.50;;;;;;6127187;29;20426;-76
2021/08/17 01:22:30;;;;;;;10.80;7.95;;;14.20;84.80;;;;;;6127991;29;20466;-75
2021/08/17 01:25:39;;;;;;;18.60;9.00;;;14.20;84.50;;;;;;6127135;29;20428;-76
2021/08/17 01:28:41;;;;;;;11.10;7.55;;;14.20;84.80;;;;;;6127052;29;20913;-76
2021/08/17 01:31:44;;;;;;;11.15;7.60;;;14.20;84.30;;;;;;6126845;29;20412;-75
2021/08/17 01:34:45;;;;;;;11.23;6.97;;;14.10;84.80;;;;;;6127137;29;20522;-76
2021/08/17 01:37:47;;;;;;;13.70;8.07;;;14.10;84.10;;;;;;6126920;29;20447;-75
2021/08/17 01:40:51;;;;;;;12.52;8.30;;;14.00;84.10;;;;;;6126925;29;20506;-76
2021/08/17 01:43:53;;;;;;;14.32;8.07;;;14.00;84.60;;;;;;6126621;29;20431;-75
2021/08/17 01:46:55;;;;;;;14.80;8.80;;;14.00;84.80;;;;;;6126465;29;20523;-76
2021/08/17 01:49:57;;;;;;;13.13;8.60;;;13.90;84.50;;;;;;6126864;29;20466;-76
2021/08/17 01:52:59;;;;;;;13.32;8.27;;;13.90;84.60;;;;;;6126585;29;20504;-76
2021/08/17 01:56:08;;;;;;;13.40;8.60;;;13.90;84.80;;;;;;6126236;29;20519;-76
2021/08/17 01:59:12;;;;;;;13.95;8.13;;;13.90;84.80;;;;;;6126430;29;20442;-76
2021/08/17 02:02:14;;;;;;;16.00;8.30;;;13.80;84.60;;;;;;6126749;29;20439;-76
2021/08/17 02:05:20;;;;;;;19.13;8.98;;;13.80;84.60;;;;;;6126037;29;20892;-76
2021/08/17 02:08:22;;;;;;;11.20;7.97;;;13.70;85.00;;;;;;6125924;29;20446;-76
2021/08/17 02:11:25;;;;;;;13.57;7.75;;;13.70;85.60;;;;;;6129820;29;20441;-76
2021/08/17 02:14:27;;;;;;;13.93;8.20;;;13.70;85.20;;;;;;6149239;28;20934;-76
2021/08/17 02:17:29;;;;;;;12.30;7.85;;;13.70;85.30;;;;;;6171379;28;20902;-75
2021/08/17 02:20:31;;;;;;;18.88;8.75;;;13.70;85.70;;;;;;6173461;28;20563;-75
2021/08/17 02:23:33;;;;;;;13.00;8.40;;;13.70;85.20;;;;;;6173576;28;20483;-75
2021/08/17 02:26:36;;;;;;;16.48;8.05;;;13.70;84.80;;;;;;6173770;28;20490;-75
2021/08/17 02:29:38;;;;;;;13.82;7.47;;;13.70;84.20;;;;;;6172941;28;20447;-75
2021/08/17 02:32:40;;;;;;;17.60;8.77;;;13.60;84.60;;;;;;6173424;28;20472;-75
2021/08/17 02:35:43;;;;;;;12.63;7.65;;;13.60;84.70;;;;;;6173324;28;20424;-76
2021/08/17 02:38:44;;;;;;;14.23;8.75;;;13.50;84.80;;;;;;6173412;28;20440;-75
2021/08/17 02:41:47;;;;;;;13.47;8.70;;;13.50;85.30;;;;;;6173497;28;20440;-75
2021/08/17 02:44:50;;;;;;;17.42;8.13;;;13.50;85.30;;;;;;6173046;28;20506;-75
2021/08/17 02:47:56;;;;;;;21.65;8.23;;;13.50;84.80;;;;;;6172698;28;20995;-75
2021/08/17 02:50:57;;;;;;;13.63;7.28;;;13.50;85.30;;;;;;6172747;28;20556;-75
2021/08/17 02:53:59;;;;;;;14.27;9.30;;;13.50;85.20;;;;;;6173488;28;20442;-75
2021/08/17 02:57:03;;;;;;;10.88;7.38;;;13.50;85.00;;;;;;6172620;28;20571;-76
2021/08/17 03:00:06;;;;;;;10.38;7.40;;;13.40;84.70;;;;;;6172583;28;20933;-75
2021/08/17 03:03:08;;;;;;;16.80;8.07;;;13.40;85.10;;;;;;6172613;28;20810;-76
2021/08/17 03:06:10;;;;;;;10.60;7.53;;;13.40;85.10;;;;;;6173045;28;20838;-75
2021/08/17 03:09:12;;;;;;;14.35;8.43;;;13.40;85.00;;;;;;6172174;28;20435;-75
2021/08/17 03:12:15;;;;;;;17.07;8.53;;;13.40;85.00;;;;;;6172841;28;20420;-75
2021/08/17 03:15:18;;;;;;;12.55;7.78;;;13.40;85.00;;;;;;6172395;28;20499;-75
2021/08/17 03:18:19;;;;;;;12.82;7.10;;;13.40;84.90;;;;;;6172599;28;20480;-75
2021/08/17 03:21:21;;;;;;;10.65;7.28;;;13.40;85.00;;;;;;6172283;28;20435;-75
2021/08/17 03:24:23;;;;;;;16.00;7.33;;;13.30;85.30;;;;;;6171078;28;20794;-75
2021/08/17 03:27:26;;;;;;;15.63;8.73;;;13.30;84.50;;;;;;6171851;28;20841;-75
2021/08/17 03:30:28;;;;;;;14.10;7.60;;;13.30;85.10;;;;;;6172442;28;20487;-75
2021/08/17 03:33:30;;;;;;;16.35;8.70;;;13.20;84.80;;;;;;6171896;28;20542;-75
2021/08/17 03:36:32;;;;;;;15.50;8.25;;;13.20;84.50;;;;;;6171792;28;20424;-75
2021/08/17 03:39:34;;;;;;;19.48;8.73;;;13.20;84.80;;;;;;6171961;28;20563;-75
2021/08/17 03:42:38;;;;;;;13.93;7.78;;;13.20;85.30;;;;;;6172249;28;20436;-75
2021/08/17 03:45:40;;;;;;;17.63;9.40;;;13.10;84.80;;;;;;6171571;28;20438;-75
2021/08/17 03:48:42;;;;;;;17.45;10.38;;;13.10;85.50;;;;;;6171841;28;20430;-74
2021/08/17 03:51:44;;;;;;;14.73;8.60;;;13.10;85.60;;;;;;6171632;28;21045;-74
2021/08/17 03:54:45;;;;;;;12.88;7.68;;;13.20;85.40;;;;;;6171925;28;20519;-74
2021/08/17 03:57:49;;;;;;;11.77;7.00;;;13.20;85.80;;;;;;6171706;28;20486;-74
2021/08/17 04:00:51;;;;;;;17.00;7.97;;;13.30;85.50;;;;;;6171530;28;20424;-74
2021/08/17 04:03:53;;;;;;;13.47;8.17;;;13.30;85.30;;;;;;6171676;28;20451;-74
2021/08/17 04:06:54;;;;;;;16.05;8.93;;;13.30;85.30;;;;;;6171330;28;20460;-74
2021/08/17 04:09:57;;;;;;;11.97;7.60;;;13.30;84.90;;;;;;6171872;28;20498;-74
2021/08/17 04:13:01;;;;;;;18.48;8.60;;;13.30;85.40;;;;;;6171407;28;20953;-74
2021/08/17 04:16:02;;;;;;;11.93;7.28;;;13.30;84.60;;;;;;6171218;28;21128;-74
2021/08/17 04:19:04;;;;;;;14.13;8.63;;;13.30;84.60;;;;;;6171538;28;20613;-74
2021/08/17 04:22:07;;;;;;;11.98;7.55;;;13.30;84.70;;;;;;6171872;28;20484;-74
2021/08/17 04:25:10;;;;;;;14.93;8.52;;;13.30;85.10;;;;;;6171498;28;20636;-74
2021/08/17 04:28:13;;;;;;;12.82;7.82;;;13.30;84.60;;;;;;6171083;28;20432;-74
2021/08/17 04:31:15;;;;;;;13.73;8.38;;;13.30;84.90;;;;;;6171283;28;20491;-74
2021/08/17 04:34:17;;;;;;;13.13;8.13;;;13.30;84.40;;;;;;6171911;28;20435;-74
2021/08/17 04:37:18;;;;;;;16.30;8.65;;;13.40;84.50;;;;;;6174457;28;20506;-74
2021/08/17 04:40:20;;;;;;;16.53;11.90;;;13.30;84.60;;;;;;6175753;28;20477;-74
2021/08/17 04:43:23;;;;;;;14.43;8.23;;;13.30;84.80;;;;;;6175609;28;20478;-74
2021/08/17 04:46:25;;;;;;;15.98;7.78;;;13.40;84.80;;;;;;6175981;28;20527;-75
2021/08/17 04:49:27;;;;;;;13.68;8.48;;;13.40;84.30;;;;;;6175318;28;20447;-74
2021/08/17 04:52:29;;;;;;;17.20;9.70;;;13.40;84.40;;;;;;6175659;28;20431;-74
2021/08/17 04:55:31;;;;;;;14.75;8.95;;;13.40;84.40;;;;;;6175312;28;20502;-74
2021/08/17 04:58:34;;;;;;;10.15;7.50;;;13.40;84.60;;;;;;6175328;28;20522;-74
2021/08/17 05:01:36;;;;;;;10.73;7.50;;;13.50;84.40;;;;;;6174910;28;20474;-74
2021/08/17 05:04:38;;;;;;;13.75;7.93;;;13.50;84.30;;;;;;6175094;28;20896;-74
2021/08/17 05:07:40;;;;;;;13.07;8.57;;;13.60;83.30;;;;;;6175018;28;20569;-74
2021/08/17 05:10:42;;;;;;;11.43;8.13;;;13.60;84.30;;;;;;6175026;28;20534;-74
2021/08/17 05:13:45;;;;;;;13.75;8.10;;;13.60;83.10;;;;;;6174915;28;20416;-74
2021/08/17 05:16:47;;;;;;;12.63;8.40;;;13.60;84.10;;;;;;6174508;28;20471;-74
2021/08/17 05:19:49;;;;;;;13.10;7.85;;;13.70;84.10;;;;;;6175092;28;20428;-74
2021/08/17 05:22:51;;;;;;;12.43;8.52;;;13.90;85.50;;;;;;6174749;28;20447;-74
2021/08/17 05:25:53;;;;;;;19.85;8.95;;;14.20;82.60;;;;;;6174710;28;20537;-74
2021/08/17 05:28:57;;;;;;;12.07;7.50;;;14.40;82.10;;;;;;6174454;28;20969;-74
2021/08/17 05:31:59;;;;;;;11.75;6.65;;;14.50;82.00;;;;;;6175032;28;20424;-73
2021/08/17 05:35:01;;;;;;;12.70;7.10;;;14.70;81.20;;;;;;6174522;28;20557;-74
2021/08/17 05:38:02;;;;;;;9.48;6.80;;;15.10;80.70;;;;;;6174610;28;20471;-74
2021/08/17 05:41:04;;;;;;;10.63;7.13;;;15.40;78.30;;;;;;6174232;28;20446;-75
2021/08/17 05:44:07;;;;;;;12.45;8.43;;;15.70;77.80;;;;;;6174368;28;20428;-74
2021/08/17 05:47:10;;;;;;;9.63;8.07;;;15.80;78.60;;;;;;6172826;28;20476;-74
2021/08/17 05:50:12;;;;;;;9.48;7.55;;;16.00;78.40;;;;;;6174106;28;21109;-74
2021/08/17 05:53:14;;;;;;;12.60;7.78;;;16.10;77.40;;;;;;6173972;28;20905;-74
2021/08/17 05:56:16;;;;;;;13.13;8.77;;;16.30;77.20;;;;;;6173554;28;20504;-74
2021/08/17 05:59:19;;;;;;;15.82;8.02;;;16.50;76.80;;;;;;6173877;28;20552;-74
2021/08/17 06:02:20;;;;;;;11.07;7.40;;;16.60;76.70;;;;;;6173867;28;20478;-74
2021/08/17 06:05:22;;;;;;;11.15;7.53;;;16.60;76.60;;;;;;6170495;28;20433;-74
2021/08/17 06:08:25;;;;;;;11.40;8.10;;;16.60;76.50;;;;;;6190441;28;20489;-74
2021/08/17 06:11:27;;;;;;;10.75;8.23;;;16.70;76.40;;;;;;6173223;28;20494;-74
2021/08/17 06:14:30;;;;;;;23.85;7.93;;;16.90;76.00;;;;;;6188528;28;20517;-74
2021/08/17 06:17:31;;;;;;;12.25;8.15;;;17.10;74.90;;;;;;6197233;28;20447;-74
2021/08/17 06:20:34;;;;;;;11.25;7.88;;;17.20;75.40;;;;;;6197273;28;20479;-74
2021/08/17 06:23:36;;;;;;;11.65;8.40;;;17.20;73.70;;;;;;6177724;28;20416;-75
2021/08/17 06:26:37;;;;;;;14.65;8.18;;;17.20;72.90;;;;;;6173705;28;20515;-74
2021/08/17 06:29:41;;;;;;;12.13;7.93;;;17.20;74.20;;;;;;6173051;28;20521;-74
2021/08/17 06:32:42;;;;;;;10.35;7.07;;;17.30;74.60;;;;;;6170442;28;20548;-74
2021/08/17 06:35:44;;;;;;;10.40;7.87;;;17.50;73.80;;;;;;6172397;28;21016;-74
2021/08/17 06:38:46;;;;;;;11.35;7.07;;;17.50;73.10;;;;;;6176905;28;20989;-74
2021/08/17 06:41:48;;;;;;;10.57;7.77;;;17.80;72.40;;;;;;6197022;28;20614;-74
2021/08/17 06:44:52;;;;;;;12.27;8.38;;;17.90;72.00;;;;;;6196843;28;20467;-74
2021/08/17 06:47:55;;;;;;;13.95;9.43;;;18.20;69.50;;;;;;6196253;28;20924;-75
2021/08/17 06:50:57;;;;;;;10.93;7.70;;;18.30;70.10;;;;;;6196462;28;20896;-75
2021/08/17 06:53:59;;;;;;;10.60;7.50;;;18.70;69.00;;;;;;6196971;28;20465;-75
2021/08/17 06:57:01;;;;;;;12.88;8.20;;;19.00;68.10;;;;;;6196177;28;21055;-75
2021/08/17 07:00:06;;;;;;;10.83;7.40;;;19.40;68.00;;;;;;6196395;28;20504;-74
2021/08/17 07:03:07;;;;;;;11.30;8.95;;;19.40;66.70;;;;;;6195851;28;20988;-74
2021/08/17 07:06:10;;;;;;;23.10;9.32;;;19.30;66.90;;;;;;6196305;28;20948;-74
2021/08/17 07:09:12;;;;;;;13.55;9.23;;;19.20;67.40;;;;;;6195825;28;20484;-74
2021/08/17 07:12:14;;;;;;;14.30;10.07;;;19.10;67.20;;;;;;6196288;28;20418;-74
2021/08/17 07:15:17;;;;;;;14.57;11.10;;;18.90;65.90;;;;;;6172733;28;20870;-74
2021/08/17 07:18:19;;;;;;;11.13;9.63;;;18.90;65.90;;;;;;6172139;28;20854;-74
2021/08/17 07:21:21;;;;;;;14.68;11.75;;;18.80;67.70;;;;;;6171701;28;20567;-74
2021/08/17 07:24:23;;;;;;;15.33;11.50;;;18.90;66.70;;;;;;6171957;28;20552;-74
2021/08/17 07:27:25;;;;;;;14.65;11.07;;;19.10;66.70;;;;;;6171740;28;20486;-73
2021/08/17 07:30:28;;;;;;;14.70;11.15;;;19.50;65.80;;;;;;6172099;28;20440;-74
2021/08/17 07:33:30;;;;;;;14.15;10.35;;;19.60;64.00;;;;;;6171883;28;20506;-74
2021/08/17 07:36:32;;;;;;;14.77;11.40;;;19.70;63.80;;;;;;6171405;28;20424;-74
2021/08/17 07:39:34;;;;;;;21.38;13.63;;;19.70;63.50;;;;;;6171962;28;20507;-74
2021/08/17 07:42:36;;;;;;;17.42;12.13;;;19.80;62.90;;;;;;6172126;28;20448;-74
2021/08/17 07:45:39;;;;;;;17.27;12.13;;;19.70;63.60;;;;;;6171324;28;20528;-74
2021/08/17 07:48:41;;;;;;;18.52;11.43;;;19.80;64.20;;;;;;6171574;28;20507;-74
2021/08/17 07:51:42;;;;;;;13.47;11.03;;;20.00;61.40;;;;;;6171673;28;20416;-74
2021/08/17 07:54:44;;;;;;;12.77;8.95;;;20.10;60.90;;;;;;6171688;28;20492;-74
2021/08/17 07:57:46;;;;;;;12.88;11.27;;;20.20;59.60;;;;;;6171617;28;21022;-74
2021/08/17 08:00:50;;;;;;;14.00;11.70;;;20.30;58.90;;;;;;6171489;28;20507;-75
2021/08/17 08:03:51;;;;;;;14.50;10.80;;;20.40;59.50;;;;;;6171455;28;21292;-76
2021/08/17 08:06:53;;;;;;;15.47;10.70;;;20.80;60.90;;;;;;6171111;28;20523;-75
2021/08/17 08:09:55;;;;;;;14.38;10.55;;;21.20;58.40;;;;;;6171452;28;20440;-75
2021/08/17 08:12:57;;;;;;;143.23;32.97;;;21.50;57.40;;;;;;6180408;28;20502;-74
2021/08/17 08:16:00;;;;;;;15.38;9.57;;;21.60;53.70;;;;;;6199966;28;20494;-74
2021/08/17 08:19:03;;;;;;;13.25;9.82;;;21.50;53.90;;;;;;6200131;28;20524;-74
2021/08/17 08:22:05;;;;;;;11.10;9.00;;;21.20;55.60;;;;;;6200424;28;20465;-74
2021/08/17 08:25:08;;;;;;;10.25;8.50;;;20.90;55.90;;;;;;6200020;28;20476;-75
2021/08/17 08:28:11;;;;;;;11.30;9.18;;;20.80;54.80;;;;;;6199704;28;20422;-75
2021/08/17 08:31:14;;;;;;;12.17;9.43;;;20.70;57.40;;;;;;6200077;28;20551;-74
2021/08/17 08:34:16;;;;;;;13.18;9.30;;;20.60;56.70;;;;;;6200139;28;20433;-75
2021/08/17 08:37:18;;;;;;;14.18;10.00;;;20.40;55.60;;;;;;6199682;28;20498;-75
2021/08/17 08:40:21;;;;;;;11.52;10.18;;;20.40;57.00;;;;;;6199697;28;20438;-74
2021/08/17 08:43:24;;;;;;;14.75;9.45;;;20.50;57.00;;;;;;6199595;28;20410;-77
2021/08/17 08:46:31;;;;;;;12.25;9.90;;;20.60;56.60;;;;;;6199700;28;20438;-75
2021/08/17 08:49:33;;;;;;;13.80;11.03;;;20.60;56.30;;;;;;6199310;28;20495;-75
2021/08/17 08:52:35;;;;;;;13.43;9.77;;;20.60;57.10;;;;;;6199714;28;20510;-74
2021/08/17 08:55:37;;;;;;;14.15;10.02;;;20.60;55.40;;;;;;6199200;28;20497;-73
2021/08/17 08:58:41;;;;;;;14.40;10.50;;;20.50;56.00;;;;;;6199944;28;20438;-74
2021/08/17 09:01:49;;;;;;;14.10;9.80;;;20.30;57.50;;;;;;6198942;28;20419;-74
2021/08/17 09:04:53;;;;;;;13.67;9.50;;;20.40;57.70;;;;;;6199293;28;20414;-74
2021/08/17 09:07:56;;;;;;;11.33;8.00;;;20.50;57.80;;;;;;6198908;28;20764;-75
2021/08/17 09:11:19;;;;;;;10.00;8.50;;;20.70;56.20;;;;;;6198880;28;20461;-76
2021/08/17 09:14:23;;;;;;;12.52;9.40;;;21.00;55.00;;;;;;6199507;28;20474;-75
2021/08/17 09:17:26;;;;;;;11.10;8.30;;;21.30;54.00;;;;;;6198555;28;20492;-75
2021/08/17 09:20:33;;;;;;;10.33;7.77;;;21.70;53.70;;;;;;6198480;28;20418;-74
2021/08/17 09:23:37;;;;;;;12.27;9.07;;;21.80;51.80;;;;;;6198563;28;20429;-74
2021/08/17 09:26:45;;;;;;;10.23;7.80;;;21.80;51.50;;;;;;6198759;28;20926;-76
2021/08/17 09:29:49;;;;;;;9.80;8.80;;;21.80;52.10;;;;;;6199281;28;20417;-75
2021/08/17 09:32:55;;;;;;;11.63;8.40;;;21.90;52.00;;;;;;6198559;28;20418;-76
2021/08/17 09:35:57;;;;;;;13.73;8.82;;;21.70;52.30;;;;;;6198582;28;20545;-75
2021/08/17 09:38:58;;;;;;;12.88;8.77;;;21.60;52.40;;;;;;6198491;28;20510;-75
2021/08/17 09:42:22;;;;;;;10.00;8.77;;;21.50;53.50;;;;;;6199074;28;20525;-76
2021/08/17 09:45:24;;;;;;;11.48;8.98;;;21.30;53.30;;;;;;6198594;28;20418;-77
2021/08/17 09:48:32;;;;;;;9.98;8.13;;;21.20;52.60;;;;;;6198290;28;20493;-75
2021/08/17 09:51:35;;;;;;;13.93;9.07;;;21.10;52.20;;;;;;6198933;28;21023;-74
2021/08/17 09:54:42;;;;;;;9.73;8.02;;;20.90;53.40;;;;;;6199912;28;20500;-73
2021/08/17 09:57:44;;;;;;;11.60;7.82;;;20.80;53.50;;;;;;6198253;28;20450;-74
2021/08/17 10:00:46;;;;;;;10.75;7.88;;;21.20;53.30;;;;;;6199348;28;20424;-74
2021/08/17 10:03:49;;;;;;;10.85;8.48;;;21.80;51.30;;;;;;6198229;28;20476;-74
2021/08/17 10:06:52;;;;;;;10.25;8.38;;;22.10;49.50;;;;;;6199052;28;20871;-73
2021/08/17 10:09:54;;;;;;;10.57;8.05;;;22.10;49.20;;;;;;6185211;28;20451;-74
2021/08/17 10:12:56;;;;;;;10.05;8.00;;;22.10;50.00;;;;;;6177245;28;20792;-74
2021/08/17 10:15:58;;;;;;;12.03;8.87;;;22.40;50.10;;;;;;6197202;28;20462;-74
2021/08/17 10:19:01;;;;;;;10.38;8.55;;;22.70;48.30;;;;;;6197198;28;20519;-74
2021/08/17 10:22:07;;;;;;;9.97;8.47;;;22.80;47.80;;;;;;6197705;28;20453;-74
2021/08/17 10:25:17;;;;;;;12.77;9.00;;;22.80;47.30;;;;;;6197445;28;20473;-75
2021/08/17 10:28:40;;;;;;;12.23;8.57;;;22.80;47.00;;;;;;6197223;28;20438;-75
2021/08/17 10:31:50;;;;;;;11.13;9.17;;;23.20;47.70;;;;;;6193763;28;20435;-76
2021/08/17 10:34:54;;;;;;;12.68;8.68;;;23.30;47.90;;;;;;6196812;28;20441;-76
2021/08/17 10:38:52;;;;;;;11.77;8.03;;;23.60;47.70;;;;;;6197239;28;20538;-76
2021/08/17 10:41:55;;;;;;;10.77;7.28;;;24.40;44.70;;;;;;6197599;28;20472;-75
2021/08/17 10:45:25;;;;;;;9.38;7.63;;;24.90;41.50;;;;;;6196793;28;20458;-75
2021/08/17 10:48:56;;;;;;;9.95;8.43;;;25.10;42.20;;;;;;6196583;28;20465;-76
2021/08/17 10:52:01;;;;;;;11.15;7.28;;;25.30;41.70;;;;;;6196860;28;20569;-76
2021/08/17 10:55:28;;;;;;;8.18;6.57;;;25.30;40.50;;;;;;6197069;28;20438;-75
2021/08/17 10:58:40;;;;;;;8.38;6.22;;;25.30;40.10;;;;;;6197019;28;20543;-75
2021/08/17 11:01:45;;;;;;;7.35;5.97;;;25.50;39.70;;;;;;6196244;28;20419;-75
2021/08/17 11:04:49;;;;;;;5.82;4.95;;;25.60;38.20;;;;;;6196244;28;20419;-75
2021/08/17 11:07:52;;;;;;;6.13;5.20;;;25.80;36.10;;;;;;6196290;28;20442;-76
2021/08/17 11:10:54;;;;;;;7.18;5.70;;;26.20;36.40;;;;;;6189878;28;20571;-75
2021/08/17 11:14:08;;;;;;;7.05;5.55;;;26.60;35.70;;;;;;6172246;28;20468;-75
2021/08/17 11:17:11;;;;;;;9.30;6.37;;;26.50;35.20;;;;;;6171879;28;20428;-76
2021/08/17 11:20:13;;;;;;;8.68;5.97;;;26.60;35.50;;;;;;6172147;28;20420;-76
2021/08/17 11:23:20;;;;;;;5.70;4.60;;;26.30;37.00;;;;;;6172176;28;20416;-76
2021/08/17 11:26:30;;;;;;;7.63;5.70;;;26.20;34.50;;;;;;6172496;28;20483;-76
2021/08/17 11:29:36;;;;;;;7.22;5.60;;;26.30;36.50;;;;;;6171775;28;20420;-76
2021/08/17 11:32:39;;;;;;;7.68;5.78;;;26.30;35.30;;;;;;6172233;28;20420;-76
2021/08/17 11:35:41;;;;;;;7.70;5.68;;;26.20;35.60;;;;;;6171399;28;20452;-76
2021/08/17 11:38:44;;;;;;;7.47;6.10;;;26.30;35.50;;;;;;6172658;28;20436;-76
2021/08/17 11:41:46;;;;;;;7.77;5.73;;;26.20;34.90;;;;;;6172028;28;20503;-76
2021/08/17 11:44:50;;;;;;;8.13;5.27;;;26.10;35.20;;;;;;6171925;28;20980;-76
2021/08/17 11:47:52;;;;;;;6.00;5.03;;;26.20;36.70;;;;;;6176165;28;20467;-76
2021/08/17 11:50:55;;;;;;;7.40;5.97;;;26.40;35.30;;;;;;6177297;28;20489;-75
2021/08/17 11:53:58;;;;;;;7.63;5.07;;;26.40;34.90;;;;;;6177066;28;20436;-75
2021/08/17 11:57:02;;;;;;;6.05;5.45;;;26.40;34.90;;;;;;6176477;28;20411;-76
2021/08/17 12:00:09;;;;;;;7.28;5.93;;;26.20;35.30;;;;;;6176293;28;20439;-75
2021/08/17 12:03:10;;;;;;;8.43;5.90;;;26.10;36.10;;;;;;6176393;28;20500;-76
2021/08/17 12:06:12;;;;;;;7.63;6.07;;;26.00;35.00;;;;;;6176423;28;20906;-75
2021/08/17 12:09:19;;;;;;;8.50;5.97;;;26.00;36.00;;;;;;6176302;28;20566;-75
2021/08/17 12:12:54;;;;;;;6.53;4.95;;;26.00;34.40;;;;;;6175039;28;20518;-76
2021/08/17 12:15:58;;;;;;;7.68;5.72;;;26.00;34.50;;;;;;6175580;28;20498;-75
2021/08/17 12:19:00;;;;;;;8.23;4.80;;;26.30;35.00;;;;;;6176236;28;20912;-75
2021/08/17 12:22:02;;;;;;;8.13;5.60;;;26.40;35.30;;;;;;6176428;28;20539;-76
2021/08/17 12:25:07;;;;;;;6.85;5.78;;;26.20;34.30;;;;;;6176324;28;20424;-76
2021/08/17 12:28:09;;;;;;;7.43;5.45;;;26.20;34.40;;;;;;6175645;28;20576;-75
2021/08/17 12:31:16;;;;;;;6.95;5.90;;;26.20;34.90;;;;;;6176279;28;20408;-75
2021/08/17 12:34:19;;;;;;;6.22;5.38;;;26.30;34.70;;;;;;6176468;28;20440;-75
2021/08/17 12:37:36;;;;;;;6.07;4.57;;;26.40;33.80;;;;;;6175751;28;20447;-76
2021/08/17 12:40:48;;;;;;;7.55;5.47;;;26.70;35.00;;;;;;6175528;28;20424;-74
2021/08/17 12:43:50;;;;;;;8.75;5.53;;;27.00;33.70;;;;;;6175701;28;20424;-76
2021/08/17 12:46:59;;;;;;;8.45;5.82;;;27.00;34.00;;;;;;6175129;28;20436;-75
2021/08/17 12:50:06;;;;;;;6.95;6.05;;;26.90;35.10;;;;;;6176189;28;20502;-76
2021/08/17 12:53:19;;;;;;;10.20;5.60;;;26.60;34.30;;;;;;6175538;28;20937;-76
2021/08/17 12:56:22;;;;;;;8.18;6.07;;;26.40;35.00;;;;;;6175106;28;20584;-76
2021/08/17 12:59:24;;;;;;;8.27;5.75;;;26.40;36.00;;;;;;6175587;28;20507;-76
2021/08/17 13:02:27;;;;;;;7.90;5.70;;;26.30;36.00;;;;;;6176324;28;20542;-75
2021/08/17 13:05:28;;;;;;;6.70;5.85;;;26.20;35.20;;;;;;6175602;28;20420;-76
2021/08/17 13:08:30;;;;;;;6.57;5.18;;;26.20;36.80;;;;;;6175675;28;20495;-76
2021/08/17 13:11:33;;;;;;;9.95;5.93;;;26.30;35.80;;;;;;6175970;28;20984;-77
2021/08/17 13:14:36;;;;;;;7.07;5.57;;;26.60;35.80;;;;;;6174809;28;20620;-76
2021/08/17 13:17:38;;;;;;;7.13;6.40;;;26.90;35.30;;;;;;6175219;28;20501;-76
2021/08/17 13:20:40;;;;;;;8.00;6.70;;;27.10;35.20;;;;;;6175386;28;20439;-76
2021/08/17 13:23:42;;;;;;;7.35;6.63;;;27.00;35.40;;;;;;6175131;28;20837;-76
2021/08/17 13:26:45;;;;;;;7.72;6.13;;;26.90;35.90;;;;;;6175481;28;20530;-75
2021/08/17 13:29:48;;;;;;;8.00;7.20;;;26.70;36.60;;;;;;6175246;28;20443;-76
2021/08/17 13:32:49;;;;;;;9.68;6.13;;;26.40;36.30;;;;;;6175281;28;20432;-76
2021/08/17 13:35:51;;;;;;;7.95;6.88;;;26.10;37.30;;;;;;6174787;28;20503;-75
2021/08/17 13:38:53;;;;;;;9.95;6.82;;;25.80;38.10;;;;;;6174605;28;20925;-76
2021/08/17 13:41:58;;;;;;;8.70;7.22;;;25.40;38.80;;;;;;6175153;28;20926;-76
2021/08/17 13:45:00;;;;;;;9.48;8.18;;;24.90;38.70;;;;;;6174592;28;20532;-75
2021/08/17 13:48:01;;;;;;;9.70;7.53;;;24.50;40.50;;;;;;6174295;28;20499;-76
2021/08/17 13:51:04;;;;;;;10.02;7.65;;;24.20;42.40;;;;;;6174500;28;20440;-76
2021/08/17 13:54:06;;;;;;;8.52;7.13;;;24.20;41.70;;;;;;6175000;28;20480;-76
2021/08/17 13:57:09;;;;;;;9.18;6.93;;;24.30;41.10;;;;;;6174353;28;20423;-75
2021/08/17 14:00:12;;;;;;;9.77;7.47;;;24.30;42.50;;;;;;6174374;28;20551;-74
2021/08/17 14:03:14;;;;;;;10.75;7.95;;;24.30;41.40;;;;;;6174234;28;20575;-75
2021/08/17 14:06:16;;;;;;;11.63;8.80;;;24.50;40.10;;;;;;6174386;28;20443;-75
2021/08/17 14:09:19;;;;;;;10.23;7.80;;;24.40;40.70;;;;;;6173056;28;20850;-75
2021/08/17 14:12:22;;;;;;;15.50;8.63;;;24.40;41.40;;;;;;6173967;28;20467;-75
2021/08/17 14:15:25;;;;;;;9.85;7.70;;;24.40;41.00;;;;;;6164661;28;20511;-76
2021/08/17 14:18:26;;;;;;;10.63;8.10;;;24.20;41.00;;;;;;6174231;28;20460;-75
2021/08/17 14:21:28;;;;;;;16.08;9.48;;;24.20;41.20;;;;;;6173807;28;20507;-76
2021/08/17 14:24:31;;;;;;;12.18;8.45;;;24.10;41.30;;;;;;6173824;28;20925;-76
2021/08/17 14:27:34;;;;;;;10.25;9.02;;;24.10;41.80;;;;;;6173351;28;20976;-74
2021/08/17 14:30:36;;;;;;;10.43;8.38;;;24.20;42.20;;;;;;6174304;28;20502;-75
2021/08/17 14:33:38;;;;;;;11.95;9.05;;;24.20;42.00;;;;;;6173503;28;20420;-76
2021/08/17 14:36:40;;;;;;;10.77;8.80;;;24.20;41.50;;;;;;6173151;28;20448;-75
2021/08/17 14:39:42;;;;;;;10.38;8.90;;;24.10;43.20;;;;;;6173334;28;20420;-75
2021/08/17 14:42:45;;;;;;;23.93;9.87;;;24.00;42.70;;;;;;6173902;28;20467;-75
2021/08/17 14:45:47;;;;;;;9.13;8.02;;;23.90;42.50;;;;;;6173961;28;21048;-74
2021/08/17 14:48:49;;;;;;;10.65;8.50;;;23.80;43.00;;;;;;6173320;28;20424;-76
2021/08/17 14:51:51;;;;;;;10.10;8.27;;;23.80;43.60;;;;;;6173281;28;20510;-75
2021/08/17 14:54:52;;;;;;;10.37;8.63;;;23.70;43.10;;;;;;6173063;28;20984;-75
2021/08/17 14:57:58;;;;;;;12.07;9.13;;;23.60;42.80;;;;;;6172091;28;21388;-76
2021/08/17 15:01:00;;;;;;;9.30;8.30;;;23.50;44.00;;;;;;6173045;28;20984;-75
2021/08/17 15:04:02;;;;;;;11.27;8.88;;;23.50;42.50;;;;;;6172891;28;20515;-75
2021/08/17 15:07:05;;;;;;;10.43;8.82;;;23.40;42.70;;;;;;6172755;28;20985;-75
2021/08/17 15:10:08;;;;;;;9.68;7.78;;;23.30;43.50;;;;;;6172985;28;20467;-75
2021/08/17 15:13:11;;;;;;;11.13;9.20;;;23.20;44.00;;;;;;6179302;28;20792;-77
2021/08/17 15:16:13;;;;;;;9.98;8.30;;;23.10;44.60;;;;;;6179026;28;20499;-76
2021/08/17 15:19:15;;;;;;;10.93;8.48;;;23.10;45.10;;;;;;6172165;28;20767;-76
2021/08/17 15:22:17;;;;;;;11.03;9.20;;;23.10;45.60;;;;;;6173415;28;20483;-78
2021/08/17 15:25:21;;;;;;;11.40;8.38;;;23.00;45.60;;;;;;6173260;28;20412;-76
2021/08/17 15:28:24;;;;;;;11.82;8.75;;;23.00;45.20;;;;;;6172764;28;21005;-78
2021/08/17 15:31:27;;;;;;;10.07;8.05;;;22.90;46.70;;;;;;6173602;28;20503;-78
2021/08/17 15:34:28;;;;;;;11.63;7.43;;;22.90;46.70;;;;;;6173368;28;21110;-77
2021/08/17 15:37:30;;;;;;;11.60;8.93;;;22.80;47.80;;;;;;6172193;28;20428;-77
2021/08/17 15:40:32;;;;;;;10.30;8.20;;;22.80;48.10;;;;;;6172394;28;20424;-77
2021/08/17 15:43:36;;;;;;;11.05;8.73;;;22.70;48.40;;;;;;6173323;28;20575;-78